Date,TemperatureHighF,TemperatureAvgF,TemperatureLowF,DewpointHighF,DewpointAvgF,DewpointLowF,HumidityHigh,HumidityAvg,HumidityLow,PressureMaxIn,PressureMinIn,WindSpeedMaxMPH,WindSpeedAvgMPH,GustSpeedMaxMPH,PrecipitationSumIn
2013-1-1,37.4,32.6,24.5,30.9,23.0,13.9,79,68,61,29.68,29.49,6,0,0,0.01
2013-1-2,32.1,26.2,20.0,19.7,16.5,12.6,75,66,57,29.83,29.66,5,0,0,0.00
2013-1-3,32.7,26.5,17.4,21.0,17.5,10.9,77,69,57,29.87,29.72,4,0,0,0.00
2013-1-4,38.8,33.0,28.8,27.7,24.1,20.7,78,69,58,29.74,29.60,6,0,0,0.00
2013-1-5,44.7,36.3,29.8,29.0,25.2,21.1,80,64,53,29.93,29.66,9,0,0,0.00
2013-1-6,46.1,40.1,33.5,34.6,31.1,28.8,88,70,59,29.79,29.63,5,0,0,0.00
2013-1-7,48.6,42.6,31.5,33.0,28.1,23.6,77,57,49,30.06,29.94,5,0,0,0.00
2013-1-8,48.2,42.8,33.1,35.3,32.8,28.2,82,68,58,30.10,30.00,7,0,0,0.00
2013-1-9,46.0,43.6,30.5,39.4,36.9,28.2,92,77,72,30.05,29.78,6,0,0,0.00
2013-1-10,49.5,42.6,37.2,35.1,29.3,26.2,74,60,46,30.20,29.88,7,0,0,0.00
2013-1-11,43.3,37.4,32.9,42.8,32.5,25.7,100,83,65,30.20,29.77,6,0,0,0.39
2013-1-12,45.7,43.4,41.7,45.1,43.0,41.4,99,99,97,29.84,29.75,3,0,0,0.03
2013-1-13,46.7,43.7,41.5,46.7,8.0,-99.9,100,100,99,29.83,29.67,6,0,0,0.02
2013-1-14,55.0,48.1,36.3,54.0,44.9,33.6,100,90,69,29.95,29.58,5,0,0,0.08
2013-1-15,38.1,35.7,33.3,34.1,30.5,27.3,95,82,70,30.01,29.89,3,0,0,0.09
2013-1-16,34.2,32.4,31.0,33.1,31.4,29.2,98,96,82,29.90,29.47,3,0,0,0.15
2013-1-17,44.4,36.5,32.1,34.9,31.7,25.3,98,83,67,29.76,29.57,7,0,0,0.28
2013-1-18,32.0,27.5,22.6,25.6,15.2,10.9,77,60,46,30.14,29.68,8,0,0,0.02
2013-1-19,48.8,40.0,28.5,33.2,27.1,15.2,74,60,50,30.06,29.58,15,1,15,0.00
2013-1-20,53.7,42.2,28.3,36.1,27.8,15.0,75,58,34,29.69,29.34,10,1,0,0.00
2013-1-21,30.4,27.3,22.4,20.3,16.2,12.4,77,63,54,29.76,29.49,7,0,0,0.00
2013-1-22,25.6,19.8,11.5,19.5,5.6,-3.4,78,54,39,29.86,29.48,6,0,0,0.00
2013-1-23,22.6,14.4,8.7,3.3,0.7,-2.9,69,54,40,29.92,29.82,8,0,0,0.00
2013-1-24,25.7,15.9,8.6,7.5,3.4,1.2,78,58,40,30.05,29.81,8,0,0,0.00
2013-1-25,23.8,17.1,11.3,16.8,8.0,1.8,89,68,49,30.08,29.73,6,0,0,0.00
2013-1-26,28.2,19.7,12.1,17.2,11.9,8.5,90,72,54,30.03,29.71,6,0,0,0.05
2013-1-27,35.0,25.2,15.1,17.4,13.5,8.5,82,62,45,30.18,30.02,4,0,0,0.00
2013-1-28,33.3,29.6,24.5,32.5,25.3,14.5,97,85,64,30.16,29.67,7,0,0,0.17
2013-1-29,42.9,36.8,33.3,42.3,35.6,32.5,98,96,85,29.83,29.66,8,0,0,0.15
2013-1-30,53.4,46.1,36.6,53.4,45.9,36.1,100,99,97,29.76,29.04,12,1,12,0.05
2013-1-31,57.2,44.4,28.1,56.8,34.5,14.0,100,70,45,29.42,28.71,26,2,26,0.57
2013-2-1,32.7,27.2,22.0,17.2,14.1,10.4,70,58,46,29.88,29.42,8,0,0,0.00
2013-2-2,30.5,23.9,17.1,22.5,13.3,9.0,98,65,45,29.97,29.73,15,0,15,0.00
2013-2-3,31.0,24.9,19.7,22.8,20.0,17.8,92,82,68,29.73,29.45,3,0,0,0.05
2013-2-4,32.6,26.8,20.8,21.4,15.3,11.9,84,62,48,29.64,29.46,7,0,0,0.01
2013-2-5,28.4,27.1,25.1,26.0,22.9,15.7,92,84,63,29.65,29.57,6,0,0,0.00
2013-2-6,41.4,32.3,26.8,31.0,23.4,10.7,96,71,49,30.01,29.59,6,0,0,0.02
2013-2-7,30.9,26.5,21.9,25.5,13.6,7.9,80,58,49,30.19,30.01,7,0,0,0.00
2013-2-8,32.1,30.5,25.7,31.1,28.4,24.5,97,92,80,30.01,29.30,12,2,12,0.02
2013-2-9,32.4,26.1,17.9,26.6,20.4,10.4,96,80,60,30.00,29.40,8,0,0,0.20
2013-2-10,35.1,25.3,13.5,23.7,15.1,7.1,81,66,46,30.15,30.00,4,0,0,0.39
2013-2-11,41.3,36.4,28.8,40.8,35.1,24.0,99,95,82,30.00,29.33,1,0,0,0.25
2013-2-12,45.4,38.6,33.1,38.0,31.0,25.5,99,75,57,29.63,29.38,7,0,0,0.01
2013-2-13,45.0,36.8,27.8,31.8,27.8,23.3,94,71,55,29.62,29.36,6,0,0,0.00
2013-2-14,45.1,37.6,29.2,34.8,31.2,28.0,97,79,54,29.66,29.37,5,0,0,0.01
2013-2-15,53.4,42.4,33.7,39.0,35.1,30.3,92,76,53,29.68,29.58,7,0,0,0.00
2013-2-16,40.1,34.2,29.3,34.4,27.6,17.7,95,77,61,29.63,29.39,4,0,0,0.05
2013-2-17,33.5,25.7,15.8,17.9,10.4,3.5,63,52,39,29.64,29.31,12,0,12,0.00
2013-2-18,34.7,25.9,15.3,17.0,10.9,4.7,66,53,42,29.89,29.63,7,0,0,0.00
2013-2-19,44.4,37.4,27.9,42.4,30.7,16.1,97,78,53,29.87,29.33,10,0,0,0.21
2013-2-20,37.0,30.3,23.6,29.5,19.1,12.9,79,63,49,29.63,29.36,10,0,0,0.00
2013-2-21,36.3,27.7,22.6,19.9,16.1,13.2,74,62,50,29.95,29.63,9,0,0,0.00
2013-2-22,35.9,30.3,22.9,29.4,23.2,16.1,83,75,62,30.08,29.92,7,0,0,0.00
2013-2-23,39.7,36.0,33.5,39.2,34.3,29.3,98,94,83,29.95,29.47,15,1,15,0.09
2013-2-24,46.9,38.0,31.3,41.7,33.8,24.9,98,85,66,29.62,29.41,8,0,0,0.01
2013-2-25,49.2,38.3,27.7,32.9,28.7,23.9,87,69,51,29.90,29.62,4,0,0,0.00
2013-2-26,41.1,36.6,31.4,33.7,31.5,27.8,95,82,70,29.97,29.59,17,1,17,0.12
2013-2-27,43.9,40.6,34.7,43.4,39.7,33.4,99,97,93,29.59,29.15,26,3,26,0.53
2013-2-28,52.6,43.2,38.6,43.4,37.7,33.1,95,82,62,29.29,29.20,4,0,0,0.00
2013-3-1,48.6,42.2,37.0,36.5,32.1,28.4,74,67,59,29.44,29.33,4,0,0,0.00
2013-3-2,44.7,37.6,31.3,30.7,28.9,28.0,89,72,56,29.44,29.40,4,0,0,0.00
2013-3-3,42.6,36.3,29.4,26.0,23.7,20.4,71,61,50,29.41,29.31,4,0,0,0.01
2013-3-4,42.9,36.7,27.4,26.4,24.1,20.5,76,61,51,29.56,29.41,9,0,0,0.00
2013-3-5,48.4,42.7,30.9,32.1,29.5,24.7,78,60,52,29.68,29.63,5,0,0,0.00
2013-3-6,40.2,39.1,36.8,35.0,32.7,29.3,86,78,72,29.62,29.54,17,4,17,0.00
2013-3-7,38.2,34.9,31.9,33.5,31.7,28.0,96,88,75,29.74,29.65,8,0,0,0.05
2013-3-8,37.9,33.0,29.8,33.6,30.8,28.8,96,92,72,29.85,29.67,4,0,0,0.27
2013-3-9,53.5,45.7,40.8,32.7,27.1,22.9,62,48,42,29.98,29.89,4,0,0,0.10
2013-3-10,47.1,41.7,36.8,37.7,35.5,33.6,90,79,67,30.06,29.97,9,1,0,0.00
2013-3-11,52.3,47.2,38.1,47.7,43.9,36.5,98,89,77,29.93,29.78,10,1,0,0.00
2013-3-12,52.9,50.0,43.4,52.3,48.9,39.9,99,96,87,29.64,29.34,14,2,14,0.80
2013-3-13,52.9,48.8,42.5,39.7,33.8,28.0,74,56,44,29.55,29.44,9,0,0,0.00
2013-3-14,38.4,34.9,28.1,20.2,16.9,12.0,56,48,38,29.61,29.50,10,0,0,0.00
2013-3-15,43.4,40.1,32.9,32.3,26.0,17.4,69,57,48,29.63,29.39,8,1,0,0.00
2013-3-16,37.7,35.1,31.8,30.0,25.9,23.4,93,70,57,29.54,29.48,4,0,0,0.03
2013-3-17,38.8,34.9,27.2,23.9,21.8,19.1,79,59,48,29.89,29.74,3,0,0,0.02
2013-3-18,33.3,30.0,25.1,30.9,21.7,11.0,98,73,53,30.09,29.70,13,2,13,0.00
2013-3-19,38.9,34.7,31.4,38.4,24.4,-99.9,99,96,82,29.70,29.36,15,1,15,0.54
2013-3-20,44.9,36.6,29.2,28.7,24.9,22.1,83,63,45,29.54,29.45,8,0,0,0.04
2013-3-21,38.8,34.1,30.5,28.4,22.0,17.0,87,62,45,29.51,29.29,3,0,0,0.00
2013-3-22,43.7,34.8,25.9,25.6,21.9,16.3,76,59,47,29.54,29.39,8,0,0,0.00
2013-3-23,47.1,38.3,30.0,28.5,24.5,21.6,76,58,46,29.60,29.48,5,0,0,0.00
2013-3-24,48.9,39.5,28.6,28.9,25.7,21.2,76,58,44,29.61,29.38,6,0,0,0.00
2013-3-25,41.1,37.5,35.7,35.4,30.3,26.5,94,76,57,29.39,29.14,16,1,16,0.05
2013-3-26,56.6,42.3,34.7,36.6,31.4,28.0,84,66,44,29.53,29.25,6,0,0,0.00
2013-3-27,56.0,43.5,32.2,35.1,30.0,25.1,77,60,38,29.63,29.52,5,0,0,0.00
2013-3-28,53.0,43.8,34.4,37.3,33.4,29.5,83,67,53,29.77,29.62,6,0,0,0.00
2013-3-29,58.5,46.9,36.8,37.5,33.0,30.3,77,59,42,29.80,29.71,6,0,0,0.00
2013-3-30,60.4,47.8,34.9,37.5,32.2,26.8,84,58,32,29.83,29.73,5,0,0,0.00
2013-3-31,53.7,44.7,34.3,43.2,36.9,30.9,97,75,51,29.79,29.33,19,1,19,0.17
2013-4-1,64.5,47.5,35.4,50.1,39.9,18.1,99,77,46,29.56,29.26,8,0,0,0.02
2013-4-2,46.2,37.7,29.3,24.4,19.3,16.8,67,48,35,29.74,29.56,7,0,0,0.00
2013-4-3,49.2,38.6,29.7,23.7,19.0,15.0,62,46,33,29.95,29.74,10,0,0,0.00
2013-4-4,52.4,40.6,29.4,35.0,25.5,17.8,78,56,37,30.06,29.74,9,1,0,0.00
2013-4-5,63.3,49.5,40.2,35.0,29.5,23.4,71,48,29,29.74,29.37,5,0,0,0.00
2013-4-6,51.4,42.5,33.2,32.4,22.3,16.0,77,47,26,29.98,29.65,8,0,0,0.00
2013-4-7,52.4,45.3,36.7,44.9,37.6,28.3,89,75,54,29.97,29.67,19,2,19,0.00
2013-4-8,73.5,57.4,42.8,49.4,45.8,41.3,95,69,40,29.75,29.65,10,1,12,0.00
2013-4-9,84.7,66.5,48.1,57.7,49.2,44.9,94,59,30,29.67,29.56,9,0,0,0.00
2013-4-10,76.7,61.9,53.6,59.6,52.3,45.0,99,72,49,29.64,29.46,10,1,0,0.45
2013-4-11,62.7,54.5,45.3,57.8,50.3,39.4,100,87,68,29.72,29.43,12,1,12,0.01
2013-4-12,45.5,41.5,38.9,40.4,38.6,35.5,97,90,76,29.70,29.39,20,3,21,0.27
2013-4-13,56.6,47.1,37.6,45.2,39.9,36.3,97,78,54,29.64,29.41,8,0,0,0.03
2013-4-14,59.9,51.8,44.3,43.1,36.5,30.0,86,57,41,29.89,29.62,8,0,0,0.00
2013-4-15,55.3,47.6,40.7,39.8,33.9,29.2,82,59,51,30.05,29.89,8,1,0,0.00
2013-4-16,60.9,52.6,43.7,53.6,47.7,38.1,91,83,74,30.04,29.79,17,2,17,0.00
2013-4-17,70.3,61.6,53.8,56.9,46.8,37.6,93,62,38,29.95,29.77,6,0,0,0.00
2013-4-18,58.0,52.3,45.9,51.2,44.9,37.2,94,77,54,30.02,29.77,12,1,12,0.00
2013-4-19,69.2,60.2,52.9,63.2,58.4,51.2,100,94,80,29.77,29.30,15,2,15,0.04
2013-4-20,61.0,53.2,44.7,60.7,41.2,29.4,100,67,40,29.95,29.31,4,0,0,0.13
2013-4-21,54.1,45.4,35.1,34.3,27.9,23.2,73,51,35,30.28,29.95,6,0,0,0.00
2013-4-22,51.1,44.8,38.3,38.8,34.5,28.9,82,68,46,30.34,30.16,15,2,15,0.00
2013-4-23,52.9,44.1,38.4,44.1,38.2,31.9,92,80,71,30.16,29.77,9,0,0,0.00
2013-4-24,69.0,52.2,39.4,53.5,46.0,37.5,97,81,56,29.79,29.50,11,1,0,0.00
2013-4-25,64.3,55.6,46.1,51.4,37.8,29.0,97,55,30,29.92,29.52,8,0,0,0.00
2013-4-26,67.0,55.3,42.3,42.8,38.4,32.3,85,56,34,30.07,29.92,7,0,0,0.00
2013-4-27,70.5,57.1,43.4,41.2,35.5,31.6,67,46,26,30.09,29.93,7,0,0,0.00
2013-4-28,66.2,55.2,44.0,48.6,41.4,35.0,89,62,37,29.98,29.87,11,1,0,0.00
2013-4-29,55.5,53.4,51.2,50.3,47.7,42.9,92,81,67,29.91,29.85,7,0,0,0.03
2013-4-30,64.8,56.2,48.8,49.4,42.3,33.5,85,62,35,30.00,29.88,9,0,0,0.00
2013-5-1,65.6,55.1,42.3,48.8,41.0,32.5,84,60,38,30.14,30.00,14,1,14,0.00
2013-5-2,71.0,58.3,42.9,49.8,45.0,41.1,95,65,36,30.13,29.98,6,0,0,0.00
2013-5-3,61.9,55.1,48.3,46.7,43.1,38.7,88,65,48,30.12,30.01,14,1,14,0.00
2013-5-4,66.5,54.1,44.1,49.5,45.3,41.1,96,74,49,30.03,29.90,8,1,0,0.00
2013-5-5,59.6,51.1,42.4,47.1,42.7,39.3,92,74,54,29.97,29.88,7,0,0,0.00
2013-5-6,65.8,54.5,43.5,55.3,48.5,41.2,94,81,65,29.94,29.82,3,0,0,0.00
2013-5-7,67.5,60.6,47.9,56.4,30.5,-99.9,96,77,62,29.84,29.75,4,0,0,0.02
2013-5-8,67.2,67.2,67.2,-99.9,-99.9,-99.9,68,68,68,29.78,29.65,0,0,0,0.00
2013-5-9,67.2,67.2,67.2,-99.9,-99.9,-99.9,68,68,68,29.68,29.58,0,0,0,0.00